sensor_id;sensor_type;location;lat;lon;timestamp;P1;durP1;ratioP1;P2;durP2;ratioP2
23696;SDS011;48864;50.820;4.400;2022-08-06T00:01:59;7.38;;;4.10;;
23696;SDS011;48864;50.820;4.400;2022-08-06T00:04:24;5.18;;;3.80;;
23696;SDS011;48864;50.820;4.400;2022-08-06T00:06:50;5.82;;;3.80;;
23696;SDS011;48864;50.820;4.400;2022-08-06T00:09:16;4.72;;;4.32;;
23696;SDS011;48864;50.820;4.400;2022-08-06T00:11:42;6.95;;;3.80;;
23696;SDS011;48864;50.820;4.400;2022-08-06T00:14:07;4.20;;;3.80;;
23696;SDS011;48864;50.820;4.400;2022-08-06T00:16:34;5.65;;;4.00;;
23696;SDS011;48864;50.820;4.400;2022-08-06T00:18:59;4.22;;;3.83;;
23696;SDS011;48864;50.820;4.400;2022-08-06T00:21:25;4.35;;;3.95;;
23696;SDS011;48864;50.820;4.400;2022-08-06T00:23:51;5.88;;;4.15;;
23696;SDS011;48864;50.820;4.400;2022-08-06T00:26:16;4.38;;;3.95;;
23696;SDS011;48864;50.820;4.400;2022-08-06T00:28:42;6.30;;;3.88;;
23696;SDS011;48864;50.820;4.400;2022-08-06T00:31:08;10.50;;;4.38;;
23696;SDS011;48864;50.820;4.400;2022-08-06T00:33:34;5.45;;;4.10;;
23696;SDS011;48864;50.820;4.400;2022-08-06T00:35:59;5.07;;;3.88;;
23696;SDS011;48864;50.820;4.400;2022-08-06T00:38:25;6.53;;;4.00;;
23696;SDS011;48864;50.820;4.400;2022-08-06T00:40:51;5.70;;;3.90;;
23696;SDS011;48864;50.820;4.400;2022-08-06T00:43:17;5.13;;;4.18;;
23696;SDS011;48864;50.820;4.400;2022-08-06T00:45:43;5.25;;;4.00;;
23696;SDS011;48864;50.820;4.400;2022-08-06T00:48:09;5.00;;;3.90;;
23696;SDS011;48864;50.820;4.400;2022-08-06T00:50:35;7.15;;;3.90;;
23696;SDS011;48864;50.820;4.400;2022-08-06T00:53:01;6.85;;;4.15;;
23696;SDS011;48864;50.820;4.400;2022-08-06T00:55:28;4.85;;;3.88;;
23696;SDS011;48864;50.820;4.400;2022-08-06T00:57:54;5.03;;;3.85;;
23696;SDS011;48864;50.820;4.400;2022-08-06T01:00:19;4.93;;;4.15;;
23696;SDS011;48864;50.820;4.400;2022-08-06T01:02:45;4.80;;;4.30;;
23696;SDS011;48864;50.820;4.400;2022-08-06T01:05:10;4.30;;;3.90;;
23696;SDS011;48864;50.820;4.400;2022-08-06T01:07:36;6.40;;;4.00;;
23696;SDS011;48864;50.820;4.400;2022-08-06T01:10:02;4.53;;;4.10;;
23696;SDS011;48864;50.820;4.400;2022-08-06T01:12:28;7.63;;;4.15;;
23696;SDS011;48864;50.820;4.400;2022-08-06T01:14:54;4.18;;;3.78;;
23696;SDS011;48864;50.820;4.400;2022-08-06T01:17:26;4.00;;;3.60;;
23696;SDS011;48864;50.820;4.400;2022-08-06T01:23:11;5.35;;;4.03;;
23696;SDS011;48864;50.820;4.400;2022-08-06T01:25:55;7.10;;;4.10;;
23696;SDS011;48864;50.820;4.400;2022-08-06T01:28:26;7.05;;;5.88;;
23696;SDS011;48864;50.820;4.400;2022-08-06T01:31:01;7.03;;;4.55;;
23696;SDS011;48864;50.820;4.400;2022-08-06T01:33:33;7.57;;;4.15;;
23696;SDS011;48864;50.820;4.400;2022-08-06T01:36:04;4.13;;;3.80;;
23696;SDS011;48864;50.820;4.400;2022-08-06T01:38:42;7.55;;;4.15;;
23696;SDS011;48864;50.820;4.400;2022-08-06T01:41:20;4.57;;;3.90;;
23696;SDS011;48864;50.820;4.400;2022-08-06T01:44:05;6.28;;;4.18;;
23696;SDS011;48864;50.820;4.400;2022-08-06T01:46:45;5.15;;;3.83;;
23696;SDS011;48864;50.820;4.400;2022-08-06T01:49:16;5.50;;;4.30;;
23696;SDS011;48864;50.820;4.400;2022-08-06T01:51:45;6.55;;;4.20;;
23696;SDS011;48864;50.820;4.400;2022-08-06T01:54:14;5.00;;;4.07;;
23696;SDS011;48864;50.820;4.400;2022-08-06T01:56:45;5.43;;;3.90;;
23696;SDS011;48864;50.820;4.400;2022-08-06T01:59:21;4.40;;;4.00;;
23696;SDS011;48864;50.820;4.400;2022-08-06T02:01:52;4.20;;;3.58;;
23696;SDS011;48864;50.820;4.400;2022-08-06T02:04:21;3.92;;;3.55;;
23696;SDS011;48864;50.820;4.400;2022-08-06T02:06:50;5.70;;;4.07;;
23696;SDS011;48864;50.820;4.400;2022-08-06T02:09:18;4.70;;;3.85;;
23696;SDS011;48864;50.820;4.400;2022-08-06T02:11:48;4.63;;;3.72;;
23696;SDS011;48864;50.820;4.400;2022-08-06T02:14:18;5.57;;;3.75;;
23696;SDS011;48864;50.820;4.400;2022-08-06T02:16:45;6.32;;;3.90;;
23696;SDS011;48864;50.820;4.400;2022-08-06T02:19:12;4.15;;;3.75;;
23696;SDS011;48864;50.820;4.400;2022-08-06T02:21:40;5.45;;;3.40;;
23696;SDS011;48864;50.820;4.400;2022-08-06T02:24:08;5.38;;;3.78;;
23696;SDS011;48864;50.820;4.400;2022-08-06T02:26:36;4.95;;;3.67;;
23696;SDS011;48864;50.820;4.400;2022-08-06T02:29:04;6.25;;;3.83;;
23696;SDS011;48864;50.820;4.400;2022-08-06T02:31:33;5.80;;;3.83;;
23696;SDS011;48864;50.820;4.400;2022-08-06T02:33:59;6.72;;;3.90;;
23696;SDS011;48864;50.820;4.400;2022-08-06T02:36:41;3.97;;;3.40;;
23696;SDS011;48864;50.820;4.400;2022-08-06T02:39:14;6.90;;;3.92;;
23696;SDS011;48864;50.820;4.400;2022-08-06T02:41:49;7.72;;;4.07;;
23696;SDS011;48864;50.820;4.400;2022-08-06T02:44:33;4.53;;;3.90;;
23696;SDS011;48864;50.820;4.400;2022-08-06T02:50:04;4.55;;;3.83;;
23696;SDS011;48864;50.820;4.400;2022-08-06T02:55:07;4.35;;;3.67;;
23696;SDS011;48864;50.820;4.400;2022-08-06T02:57:38;5.35;;;3.78;;
23696;SDS011;48864;50.820;4.400;2022-08-06T03:00:07;5.15;;;3.80;;
23696;SDS011;48864;50.820;4.400;2022-08-06T03:02:35;4.47;;;3.72;;
23696;SDS011;48864;50.820;4.400;2022-08-06T03:05:04;4.78;;;3.45;;
23696;SDS011;48864;50.820;4.400;2022-08-06T03:07:32;4.22;;;3.80;;
23696;SDS011;48864;50.820;4.400;2022-08-06T03:10:00;6.57;;;5.28;;
23696;SDS011;48864;50.820;4.400;2022-08-06T03:12:27;5.38;;;3.70;;
23696;SDS011;48864;50.820;4.400;2022-08-06T03:14:53;5.70;;;3.67;;
23696;SDS011;48864;50.820;4.400;2022-08-06T03:17:20;3.92;;;3.60;;
23696;SDS011;48864;50.820;4.400;2022-08-06T03:19:46;4.85;;;3.50;;
23696;SDS011;48864;50.820;4.400;2022-08-06T03:22:14;4.50;;;3.58;;
23696;SDS011;48864;50.820;4.400;2022-08-06T03:27:28;4.15;;;3.70;;
23696;SDS011;48864;50.820;4.400;2022-08-06T03:29:54;4.22;;;3.88;;
23696;SDS011;48864;50.820;4.400;2022-08-06T03:32:20;6.78;;;4.13;;
23696;SDS011;48864;50.820;4.400;2022-08-06T03:34:47;4.82;;;3.88;;
23696;SDS011;48864;50.820;4.400;2022-08-06T03:37:15;6.78;;;3.85;;
23696;SDS011;48864;50.820;4.400;2022-08-06T03:39:44;4.10;;;3.80;;
23696;SDS011;48864;50.820;4.400;2022-08-06T03:42:11;4.10;;;3.65;;
23696;SDS011;48864;50.820;4.400;2022-08-06T03:44:37;5.65;;;3.50;;
23696;SDS011;48864;50.820;4.400;2022-08-06T03:47:11;5.25;;;3.97;;
23696;SDS011;48864;50.820;4.400;2022-08-06T03:49:42;5.60;;;4.00;;
23696;SDS011;48864;50.820;4.400;2022-08-06T03:52:17;6.70;;;4.00;;
23696;SDS011;48864;50.820;4.400;2022-08-06T03:54:47;4.25;;;3.85;;
23696;SDS011;48864;50.820;4.400;2022-08-06T03:57:18;5.32;;;4.15;;
23696;SDS011;48864;50.820;4.400;2022-08-06T03:59:48;5.30;;;4.22;;
23696;SDS011;48864;50.820;4.400;2022-08-06T04:02:18;5.05;;;4.10;;
23696;SDS011;48864;50.820;4.400;2022-08-06T04:04:44;7.15;;;4.25;;
23696;SDS011;48864;50.820;4.400;2022-08-06T04:07:12;4.63;;;4.20;;
23696;SDS011;48864;50.820;4.400;2022-08-06T04:09:40;4.43;;;4.05;;
23696;SDS011;48864;50.820;4.400;2022-08-06T04:12:07;4.80;;;4.00;;
23696;SDS011;48864;50.820;4.400;2022-08-06T04:14:34;4.22;;;3.72;;
23696;SDS011;48864;50.820;4.400;2022-08-06T04:17:00;5.20;;;3.88;;
23696;SDS011;48864;50.820;4.400;2022-08-06T04:19:28;4.88;;;4.13;;
23696;SDS011;48864;50.820;4.400;2022-08-06T04:21:55;4.35;;;3.90;;
23696;SDS011;48864;50.820;4.400;2022-08-06T04:24:21;4.85;;;3.90;;
23696;SDS011;48864;50.820;4.400;2022-08-06T04:26:47;5.47;;;3.80;;
23696;SDS011;48864;50.820;4.400;2022-08-06T04:29:17;6.10;;;3.70;;
23696;SDS011;48864;50.820;4.400;2022-08-06T04:31:44;42.05;;;39.70;;
23696;SDS011;48864;50.820;4.400;2022-08-06T04:34:11;41.78;;;39.47;;
23696;SDS011;48864;50.820;4.400;2022-08-06T04:36:38;41.78;;;38.97;;
23696;SDS011;48864;50.820;4.400;2022-08-06T04:39:05;41.75;;;39.00;;
23696;SDS011;48864;50.820;4.400;2022-08-06T04:41:31;40.15;;;37.80;;
23696;SDS011;48864;50.820;4.400;2022-08-06T04:43:57;41.13;;;38.70;;
23696;SDS011;48864;50.820;4.400;2022-08-06T04:46:23;39.10;;;36.97;;
23696;SDS011;48864;50.820;4.400;2022-08-06T04:48:49;40.33;;;37.72;;
23696;SDS011;48864;50.820;4.400;2022-08-06T04:51:15;40.13;;;37.45;;
23696;SDS011;48864;50.820;4.400;2022-08-06T04:53:41;38.78;;;36.60;;
23696;SDS011;48864;50.820;4.400;2022-08-06T04:56:07;40.55;;;37.83;;
23696;SDS011;48864;50.820;4.400;2022-08-06T04:58:34;40.08;;;37.50;;
23696;SDS011;48864;50.820;4.400;2022-08-06T05:01:01;37.72;;;35.40;;
23696;SDS011;48864;50.820;4.400;2022-08-06T05:03:27;38.92;;;36.63;;
23696;SDS011;48864;50.820;4.400;2022-08-06T05:05:55;38.83;;;36.58;;
23696;SDS011;48864;50.820;4.400;2022-08-06T05:08:34;37.63;;;35.28;;
23696;SDS011;48864;50.820;4.400;2022-08-06T05:11:21;38.03;;;35.53;;
23696;SDS011;48864;50.820;4.400;2022-08-06T05:13:55;38.67;;;36.28;;
23696;SDS011;48864;50.820;4.400;2022-08-06T05:16:26;39.10;;;36.90;;
23696;SDS011;48864;50.820;4.400;2022-08-06T05:19:02;37.58;;;35.38;;
23696;SDS011;48864;50.820;4.400;2022-08-06T05:21:33;38.45;;;36.10;;
23696;SDS011;48864;50.820;4.400;2022-08-06T05:24:02;38.05;;;35.78;;
23696;SDS011;48864;50.820;4.400;2022-08-06T05:26:28;37.50;;;35.28;;
23696;SDS011;48864;50.820;4.400;2022-08-06T05:28:54;38.92;;;36.22;;
23696;SDS011;48864;50.820;4.400;2022-08-06T05:31:30;38.97;;;36.55;;
23696;SDS011;48864;50.820;4.400;2022-08-06T05:33:56;38.90;;;36.60;;
23696;SDS011;48864;50.820;4.400;2022-08-06T05:36:22;38.78;;;36.38;;
23696;SDS011;48864;50.820;4.400;2022-08-06T05:38:48;37.45;;;35.35;;
23696;SDS011;48864;50.820;4.400;2022-08-06T05:41:13;37.83;;;35.70;;
23696;SDS011;48864;50.820;4.400;2022-08-06T05:43:39;37.70;;;35.53;;
23696;SDS011;48864;50.820;4.400;2022-08-06T05:46:09;37.65;;;35.40;;
23696;SDS011;48864;50.820;4.400;2022-08-06T05:48:47;38.05;;;35.83;;
23696;SDS011;48864;50.820;4.400;2022-08-06T05:51:19;39.03;;;36.40;;
23696;SDS011;48864;50.820;4.400;2022-08-06T05:53:55;39.08;;;36.40;;
23696;SDS011;48864;50.820;4.400;2022-08-06T05:56:29;39.55;;;36.90;;
23696;SDS011;48864;50.820;4.400;2022-08-06T05:59:01;37.45;;;35.25;;
23696;SDS011;48864;50.820;4.400;2022-08-06T06:01:31;38.00;;;35.90;;
23696;SDS011;48864;50.820;4.400;2022-08-06T06:03:59;37.10;;;35.00;;
23696;SDS011;48864;50.820;4.400;2022-08-06T06:06:26;38.65;;;36.25;;
23696;SDS011;48864;50.820;4.400;2022-08-06T06:08:52;38.05;;;35.60;;
23696;SDS011;48864;50.820;4.400;2022-08-06T06:11:18;37.72;;;35.53;;
23696;SDS011;48864;50.820;4.400;2022-08-06T06:13:44;37.75;;;35.33;;
23696;SDS011;48864;50.820;4.400;2022-08-06T06:16:27;37.70;;;35.42;;
23696;SDS011;48864;50.820;4.400;2022-08-06T06:19:23;37.47;;;35.17;;
23696;SDS011;48864;50.820;4.400;2022-08-06T06:24:21;39.17;;;36.63;;
23696;SDS011;48864;50.820;4.400;2022-08-06T06:29:47;38.55;;;36.10;;
23696;SDS011;48864;50.820;4.400;2022-08-06T06:32:33;38.60;;;35.95;;
23696;SDS011;48864;50.820;4.400;2022-08-06T06:35:10;38.78;;;36.40;;
23696;SDS011;48864;50.820;4.400;2022-08-06T06:38:01;38.08;;;35.35;;
23696;SDS011;48864;50.820;4.400;2022-08-06T06:41:16;38.72;;;36.30;;
23696;SDS011;48864;50.820;4.400;2022-08-06T06:46:46;38.15;;;35.72;;
23696;SDS011;48864;50.820;4.400;2022-08-06T06:49:32;37.08;;;34.92;;
23696;SDS011;48864;50.820;4.400;2022-08-06T06:52:21;37.88;;;35.65;;
23696;SDS011;48864;50.820;4.400;2022-08-06T06:55:01;37.08;;;34.92;;
23696;SDS011;48864;50.820;4.400;2022-08-06T06:57:34;37.78;;;35.22;;
23696;SDS011;48864;50.820;4.400;2022-08-06T07:00:04;35.67;;;33.63;;
23696;SDS011;48864;50.820;4.400;2022-08-06T07:02:31;8.02;;;3.70;;
23696;SDS011;48864;50.820;4.400;2022-08-06T07:05:00;6.25;;;4.18;;
23696;SDS011;48864;50.820;4.400;2022-08-06T07:07:29;5.88;;;3.55;;
23696;SDS011;48864;50.820;4.400;2022-08-06T07:09:58;5.57;;;3.60;;
23696;SDS011;48864;50.820;4.400;2022-08-06T07:12:27;6.13;;;3.33;;
23696;SDS011;48864;50.820;4.400;2022-08-06T07:14:57;4.75;;;3.40;;
23696;SDS011;48864;50.820;4.400;2022-08-06T07:17:25;6.90;;;3.75;;
23696;SDS011;48864;50.820;4.400;2022-08-06T07:19:54;6.93;;;3.85;;
23696;SDS011;48864;50.820;4.400;2022-08-06T07:22:22;4.22;;;3.20;;
23696;SDS011;48864;50.820;4.400;2022-08-06T07:24:54;10.65;;;4.57;;
23696;SDS011;48864;50.820;4.400;2022-08-06T07:27:24;5.25;;;3.47;;
23696;SDS011;48864;50.820;4.400;2022-08-06T07:29:54;6.72;;;3.70;;
23696;SDS011;48864;50.820;4.400;2022-08-06T07:32:21;7.60;;;3.75;;
23696;SDS011;48864;50.820;4.400;2022-08-06T07:34:48;7.38;;;3.50;;
23696;SDS011;48864;50.820;4.400;2022-08-06T07:37:15;7.53;;;3.53;;
23696;SDS011;48864;50.820;4.400;2022-08-06T07:39:43;5.43;;;3.50;;
23696;SDS011;48864;50.820;4.400;2022-08-06T07:42:11;6.45;;;3.67;;
23696;SDS011;48864;50.820;4.400;2022-08-06T07:44:39;6.40;;;3.90;;
23696;SDS011;48864;50.820;4.400;2022-08-06T07:47:08;11.25;;;3.83;;
23696;SDS011;48864;50.820;4.400;2022-08-06T07:49:40;9.57;;;3.40;;
23696;SDS011;48864;50.820;4.400;2022-08-06T07:52:07;9.73;;;3.47;;
23696;SDS011;48864;50.820;4.400;2022-08-06T07:54:35;4.25;;;3.85;;
23696;SDS011;48864;50.820;4.400;2022-08-06T07:57:02;4.32;;;3.22;;
23696;SDS011;48864;50.820;4.400;2022-08-06T07:59:31;5.60;;;3.67;;
23696;SDS011;48864;50.820;4.400;2022-08-06T08:01:58;3.78;;;3.30;;
23696;SDS011;48864;50.820;4.400;2022-08-06T08:04:25;7.30;;;3.80;;
23696;SDS011;48864;50.820;4.400;2022-08-06T08:07:10;4.50;;;3.75;;
23696;SDS011;48864;50.820;4.400;2022-08-06T08:09:36;5.40;;;3.38;;
23696;SDS011;48864;50.820;4.400;2022-08-06T08:12:03;5.07;;;3.70;;
23696;SDS011;48864;50.820;4.400;2022-08-06T08:14:31;4.90;;;3.67;;
23696;SDS011;48864;50.820;4.400;2022-08-06T08:16:57;4.97;;;3.30;;
23696;SDS011;48864;50.820;4.400;2022-08-06T08:19:24;6.53;;;3.88;;
23696;SDS011;48864;50.820;4.400;2022-08-06T08:21:55;5.15;;;3.30;;
23696;SDS011;48864;50.820;4.400;2022-08-06T08:24:22;3.78;;;3.47;;
23696;SDS011;48864;50.820;4.400;2022-08-06T08:26:48;5.20;;;3.60;;
23696;SDS011;48864;50.820;4.400;2022-08-06T08:29:14;7.70;;;3.75;;
23696;SDS011;48864;50.820;4.400;2022-08-06T08:31:40;5.90;;;3.90;;
23696;SDS011;48864;50.820;4.400;2022-08-06T08:34:06;5.95;;;3.50;;
23696;SDS011;48864;50.820;4.400;2022-08-06T08:36:32;3.88;;;3.53;;
23696;SDS011;48864;50.820;4.400;2022-08-06T08:38:58;5.72;;;3.90;;
23696;SDS011;48864;50.820;4.400;2022-08-06T08:41:24;5.72;;;3.50;;
23696;SDS011;48864;50.820;4.400;2022-08-06T08:43:55;6.35;;;3.38;;
23696;SDS011;48864;50.820;4.400;2022-08-06T08:46:25;7.88;;;3.47;;
23696;SDS011;48864;50.820;4.400;2022-08-06T08:48:52;4.72;;;3.58;;
23696;SDS011;48864;50.820;4.400;2022-08-06T08:51:20;4.20;;;3.53;;
23696;SDS011;48864;50.820;4.400;2022-08-06T08:53:48;7.97;;;3.55;;
23696;SDS011;48864;50.820;4.400;2022-08-06T08:56:20;5.65;;;3.58;;
23696;SDS011;48864;50.820;4.400;2022-08-06T08:58:47;3.40;;;3.10;;
23696;SDS011;48864;50.820;4.400;2022-08-06T09:01:13;5.38;;;4.13;;
23696;SDS011;48864;50.820;4.400;2022-08-06T09:03:40;6.05;;;3.63;;
23696;SDS011;48864;50.820;4.400;2022-08-06T09:06:06;4.53;;;3.60;;
23696;SDS011;48864;50.820;4.400;2022-08-06T09:08:34;4.38;;;3.88;;
23696;SDS011;48864;50.820;4.400;2022-08-06T09:11:01;3.80;;;3.50;;
23696;SDS011;48864;50.820;4.400;2022-08-06T09:13:28;3.75;;;3.42;;
23696;SDS011;48864;50.820;4.400;2022-08-06T09:15:54;3.60;;;3.30;;
23696;SDS011;48864;50.820;4.400;2022-08-06T09:18:21;4.07;;;3.58;;
23696;SDS011;48864;50.820;4.400;2022-08-06T09:20:48;4.40;;;3.40;;
23696;SDS011;48864;50.820;4.400;2022-08-06T09:23:14;4.70;;;3.58;;
23696;SDS011;48864;50.820;4.400;2022-08-06T09:31:01;4.55;;;4.13;;
23696;SDS011;48864;50.820;4.400;2022-08-06T09:33:30;4.65;;;4.07;;
23696;SDS011;48864;50.820;4.400;2022-08-06T09:36:03;4.05;;;3.75;;
23696;SDS011;48864;50.820;4.400;2022-08-06T09:38:30;5.13;;;4.50;;
23696;SDS011;48864;50.820;4.400;2022-08-06T09:43:28;4.47;;;3.60;;
23696;SDS011;48864;50.820;4.400;2022-08-06T09:45:53;4.07;;;3.78;;
23696;SDS011;48864;50.820;4.400;2022-08-06T09:48:19;5.72;;;4.75;;
23696;SDS011;48864;50.820;4.400;2022-08-06T09:50:46;5.28;;;4.05;;
23696;SDS011;48864;50.820;4.400;2022-08-06T09:53:12;3.83;;;3.53;;
23696;SDS011;48864;50.820;4.400;2022-08-06T09:55:38;4.53;;;3.78;;
23696;SDS011;48864;50.820;4.400;2022-08-06T09:58:04;4.97;;;4.10;;
23696;SDS011;48864;50.820;4.400;2022-08-06T10:00:31;4.25;;;3.92;;
23696;SDS011;48864;50.820;4.400;2022-08-06T10:02:59;4.88;;;4.10;;
23696;SDS011;48864;50.820;4.400;2022-08-06T10:05:26;4.75;;;4.20;;
23696;SDS011;48864;50.820;4.400;2022-08-06T10:08:09;4.47;;;4.00;;
23696;SDS011;48864;50.820;4.400;2022-08-06T10:10:50;3.80;;;3.60;;
23696;SDS011;48864;50.820;4.400;2022-08-06T10:13:23;4.25;;;3.92;;
23696;SDS011;48864;50.820;4.400;2022-08-06T10:15:52;4.15;;;3.75;;
23696;SDS011;48864;50.820;4.400;2022-08-06T10:21:18;4.60;;;3.95;;
23696;SDS011;48864;50.820;4.400;2022-08-06T10:23:49;4.18;;;3.88;;
23696;SDS011;48864;50.820;4.400;2022-08-06T10:26:18;5.07;;;4.40;;
23696;SDS011;48864;50.820;4.400;2022-08-06T10:28:54;4.75;;;3.92;;
23696;SDS011;48864;50.820;4.400;2022-08-06T10:31:25;4.75;;;4.25;;
23696;SDS011;48864;50.820;4.400;2022-08-06T10:36:36;4.47;;;3.88;;
23696;SDS011;48864;50.820;4.400;2022-08-06T10:39:05;5.07;;;4.10;;
23696;SDS011;48864;50.820;4.400;2022-08-06T10:41:32;5.20;;;3.90;;
23696;SDS011;48864;50.820;4.400;2022-08-06T10:44:00;4.30;;;3.88;;
23696;SDS011;48864;50.820;4.400;2022-08-06T10:46:27;3.95;;;3.65;;
23696;SDS011;48864;50.820;4.400;2022-08-06T10:48:53;6.15;;;4.32;;
23696;SDS011;48864;50.820;4.400;2022-08-06T10:51:19;4.60;;;4.20;;
23696;SDS011;48864;50.820;4.400;2022-08-06T10:53:45;3.97;;;3.67;;
23696;SDS011;48864;50.820;4.400;2022-08-06T10:56:14;3.92;;;3.63;;
23696;SDS011;48864;50.820;4.400;2022-08-06T10:58:41;3.90;;;3.60;;
23696;SDS011;48864;50.820;4.400;2022-08-06T11:04:32;4.60;;;4.20;;
23696;SDS011;48864;50.820;4.400;2022-08-06T11:15:18;4.15;;;3.88;;
23696;SDS011;48864;50.820;4.400;2022-08-06T11:17:48;4.10;;;3.80;;
23696;SDS011;48864;50.820;4.400;2022-08-06T11:22:57;4.82;;;4.43;;
23696;SDS011;48864;50.820;4.400;2022-08-06T11:25:40;6.18;;;4.40;;
23696;SDS011;48864;50.820;4.400;2022-08-06T11:28:09;5.00;;;4.60;;
23696;SDS011;48864;50.820;4.400;2022-08-06T11:30:41;4.20;;;3.90;;
23696;SDS011;48864;50.820;4.400;2022-08-06T11:33:11;3.97;;;3.67;;
23696;SDS011;48864;50.820;4.400;2022-08-06T11:35:39;4.15;;;3.75;;
23696;SDS011;48864;50.820;4.400;2022-08-06T11:38:07;4.43;;;4.18;;
23696;SDS011;48864;50.820;4.400;2022-08-06T11:41:43;5.30;;;4.90;;
23696;SDS011;48864;50.820;4.400;2022-08-06T11:49:10;4.95;;;4.55;;
23696;SDS011;48864;50.820;4.400;2022-08-06T11:51:58;4.93;;;4.50;;
23696;SDS011;48864;50.820;4.400;2022-08-06T11:54:35;4.43;;;4.00;;
23696;SDS011;48864;50.820;4.400;2022-08-06T11:57:22;4.80;;;4.15;;
23696;SDS011;48864;50.820;4.400;2022-08-06T12:05:04;5.50;;;5.00;;
23696;SDS011;48864;50.820;4.400;2022-08-06T12:07:31;4.82;;;4.35;;
23696;SDS011;48864;50.820;4.400;2022-08-06T12:20:33;4.95;;;4.60;;
23696;SDS011;48864;50.820;4.400;2022-08-06T12:23:04;5.88;;;4.90;;
23696;SDS011;48864;50.820;4.400;2022-08-06T12:25:38;5.68;;;5.18;;
23696;SDS011;48864;50.820;4.400;2022-08-06T12:28:12;4.80;;;4.50;;
23696;SDS011;48864;50.820;4.400;2022-08-06T12:30:42;5.15;;;4.75;;
23696;SDS011;48864;50.820;4.400;2022-08-06T12:33:11;5.18;;;4.78;;
23696;SDS011;48864;50.820;4.400;2022-08-06T12:35:50;4.85;;;4.55;;
23696;SDS011;48864;50.820;4.400;2022-08-06T12:38:24;5.82;;;5.43;;
23696;SDS011;48864;50.820;4.400;2022-08-06T12:40:52;5.70;;;5.40;;
23696;SDS011;48864;50.820;4.400;2022-08-06T12:43:24;5.78;;;5.28;;
23696;SDS011;48864;50.820;4.400;2022-08-06T12:45:57;5.70;;;5.30;;
23696;SDS011;48864;50.820;4.400;2022-08-06T12:48:24;5.70;;;5.20;;
23696;SDS011;48864;50.820;4.400;2022-08-06T12:50:50;5.03;;;4.63;;
23696;SDS011;48864;50.820;4.400;2022-08-06T12:53:25;5.85;;;5.40;;
23696;SDS011;48864;50.820;4.400;2022-08-06T12:55:52;6.35;;;5.95;;
23696;SDS011;48864;50.820;4.400;2022-08-06T12:58:19;6.13;;;5.53;;
23696;SDS011;48864;50.820;4.400;2022-08-06T13:00:49;5.65;;;5.20;;
23696;SDS011;48864;50.820;4.400;2022-08-06T13:03:18;5.07;;;4.78;;
23696;SDS011;48864;50.820;4.400;2022-08-06T13:05:46;5.68;;;5.28;;
23696;SDS011;48864;50.820;4.400;2022-08-06T13:08:12;6.55;;;5.10;;
23696;SDS011;48864;50.820;4.400;2022-08-06T13:10:39;5.32;;;4.88;;
23696;SDS011;48864;50.820;4.400;2022-08-06T13:13:11;4.85;;;4.55;;
23696;SDS011;48864;50.820;4.400;2022-08-06T13:15:37;5.57;;;5.18;;
23696;SDS011;48864;50.820;4.400;2022-08-06T13:18:07;5.95;;;5.47;;
23696;SDS011;48864;50.820;4.400;2022-08-06T13:20:43;6.05;;;5.43;;
23696;SDS011;48864;50.820;4.400;2022-08-06T13:23:10;5.43;;;5.13;;
23696;SDS011;48864;50.820;4.400;2022-08-06T13:25:45;5.70;;;5.30;;
23696;SDS011;48864;50.820;4.400;2022-08-06T13:28:13;6.15;;;5.57;;
23696;SDS011;48864;50.820;4.400;2022-08-06T13:30:44;5.40;;;4.93;;
23696;SDS011;48864;50.820;4.400;2022-08-06T13:33:22;5.50;;;5.15;;
23696;SDS011;48864;50.820;4.400;2022-08-06T13:35:52;5.70;;;5.30;;
23696;SDS011;48864;50.820;4.400;2022-08-06T13:38:31;6.10;;;5.60;;
23696;SDS011;48864;50.820;4.400;2022-08-06T13:40:58;5.90;;;5.38;;
23696;SDS011;48864;50.820;4.400;2022-08-06T13:43:41;6.07;;;5.47;;
23696;SDS011;48864;50.820;4.400;2022-08-06T13:46:09;6.07;;;5.60;;
23696;SDS011;48864;50.820;4.400;2022-08-06T13:48:42;6.55;;;6.07;;
23696;SDS011;48864;50.820;4.400;2022-08-06T13:51:14;5.38;;;5.03;;
23696;SDS011;48864;50.820;4.400;2022-08-06T13:53:41;6.45;;;5.95;;
23696;SDS011;48864;50.820;4.400;2022-08-06T13:56:07;5.68;;;5.22;;
23696;SDS011;48864;50.820;4.400;2022-08-06T13:58:33;6.28;;;5.78;;
23696;SDS011;48864;50.820;4.400;2022-08-06T14:00:59;6.95;;;6.28;;
23696;SDS011;48864;50.820;4.400;2022-08-06T14:03:25;6.50;;;6.10;;
23696;SDS011;48864;50.820;4.400;2022-08-06T14:05:51;6.55;;;6.15;;
23696;SDS011;48864;50.820;4.400;2022-08-06T14:08:17;8.50;;;6.63;;
23696;SDS011;48864;50.820;4.400;2022-08-06T14:10:43;6.78;;;6.28;;
23696;SDS011;48864;50.820;4.400;2022-08-06T14:13:08;5.65;;;5.25;;
23696;SDS011;48864;50.820;4.400;2022-08-06T14:15:44;5.38;;;5.03;;
23696;SDS011;48864;50.820;4.400;2022-08-06T14:18:11;5.85;;;5.40;;
23696;SDS011;48864;50.820;4.400;2022-08-06T14:20:37;5.80;;;5.40;;
23696;SDS011;48864;50.820;4.400;2022-08-06T14:23:03;5.88;;;5.38;;
23696;SDS011;48864;50.820;4.400;2022-08-06T14:25:28;5.88;;;5.47;;
23696;SDS011;48864;50.820;4.400;2022-08-06T14:27:55;6.43;;;5.93;;
23696;SDS011;48864;50.820;4.400;2022-08-06T14:30:21;6.03;;;5.53;;
23696;SDS011;48864;50.820;4.400;2022-08-06T14:32:47;5.90;;;5.40;;
23696;SDS011;48864;50.820;4.400;2022-08-06T14:35:16;6.00;;;5.47;;
23696;SDS011;48864;50.820;4.400;2022-08-06T14:37:42;5.72;;;5.32;;
23696;SDS011;48864;50.820;4.400;2022-08-06T14:40:09;5.75;;;5.28;;
23696;SDS011;48864;50.820;4.400;2022-08-06T14:42:36;6.50;;;6.00;;
23696;SDS011;48864;50.820;4.400;2022-08-06T14:45:21;7.07;;;6.47;;
23696;SDS011;48864;50.820;4.400;2022-08-06T14:47:49;6.40;;;6.00;;
23696;SDS011;48864;50.820;4.400;2022-08-06T14:50:15;6.78;;;6.38;;
23696;SDS011;48864;50.820;4.400;2022-08-06T14:52:42;6.22;;;5.72;;
23696;SDS011;48864;50.820;4.400;2022-08-06T14:55:08;7.15;;;6.65;;
23696;SDS011;48864;50.820;4.400;2022-08-06T14:57:35;6.88;;;6.45;;
23696;SDS011;48864;50.820;4.400;2022-08-06T15:00:02;6.47;;;5.97;;
23696;SDS011;48864;50.820;4.400;2022-08-06T15:02:29;52.85;;;49.92;;
23696;SDS011;48864;50.820;4.400;2022-08-06T15:04:55;54.03;;;50.78;;
23696;SDS011;48864;50.820;4.400;2022-08-06T15:07:21;52.70;;;49.80;;
23696;SDS011;48864;50.820;4.400;2022-08-06T15:09:47;52.90;;;50.10;;
23696;SDS011;48864;50.820;4.400;2022-08-06T15:12:14;52.38;;;49.67;;
23696;SDS011;48864;50.820;4.400;2022-08-06T15:14:40;49.53;;;46.83;;
23696;SDS011;48864;50.820;4.400;2022-08-06T15:17:06;53.00;;;50.15;;
23696;SDS011;48864;50.820;4.400;2022-08-06T15:19:32;49.50;;;46.92;;
23696;SDS011;48864;50.820;4.400;2022-08-06T15:21:57;48.58;;;46.08;;
23696;SDS011;48864;50.820;4.400;2022-08-06T15:24:23;49.90;;;47.00;;
23696;SDS011;48864;50.820;4.400;2022-08-06T15:26:49;50.22;;;47.42;;
23696;SDS011;48864;50.820;4.400;2022-08-06T15:29:15;50.97;;;48.08;;
23696;SDS011;48864;50.820;4.400;2022-08-06T15:31:41;50.15;;;47.35;;
23696;SDS011;48864;50.820;4.400;2022-08-06T15:34:07;54.30;;;51.20;;
23696;SDS011;48864;50.820;4.400;2022-08-06T15:36:33;51.53;;;48.83;;
23696;SDS011;48864;50.820;4.400;2022-08-06T15:38:58;50.90;;;47.85;;
23696;SDS011;48864;50.820;4.400;2022-08-06T15:41:24;49.58;;;46.97;;
23696;SDS011;48864;50.820;4.400;2022-08-06T15:43:52;48.80;;;46.10;;
23696;SDS011;48864;50.820;4.400;2022-08-06T15:46:18;49.67;;;47.05;;
23696;SDS011;48864;50.820;4.400;2022-08-06T15:48:45;50.05;;;47.13;;
23696;SDS011;48864;50.820;4.400;2022-08-06T15:51:11;51.28;;;48.50;;
23696;SDS011;48864;50.820;4.400;2022-08-06T15:53:37;53.15;;;50.25;;
23696;SDS011;48864;50.820;4.400;2022-08-06T15:56:03;51.00;;;48.08;;
23696;SDS011;48864;50.820;4.400;2022-08-06T15:58:29;53.10;;;50.20;;
23696;SDS011;48864;50.820;4.400;2022-08-06T16:00:54;52.92;;;49.63;;
23696;SDS011;48864;50.820;4.400;2022-08-06T16:03:20;53.50;;;50.60;;